Weather at Robert Lee Airport

Public forecast

Using degrees Fahrenheit for public forecast. Weather courtesy of forecast.io.

Closest aviation weather report (METAR) to Robert Lee Airport

Closest report is San Angelo Regional Mathis Field, 31.5 nm (58.4 km) S. Retrieved 2021/07/24 23:51 UTC (13 minutes ago):

KSJT 242351Z 13005KT 10SM FEW090 37/17 A2993 RMK AO2 SLP107 T03720167 10383 20339 58015

Closest aviation forecast (TAF) to Robert Lee Airport

Closest forecast is San Angelo Regional Mathis Field, 31.5 nm (58.4 km) S. Retrieved 2021-07-25 00:39 UTC (0 seconds ago):

TAF KSJT 242336Z 2500/2524 16006KT P6SM SKC FM251700 17011G17KT P6SM SKC